• Join FlightAware (Why Join?)
  • Login
  • US Flag 
01:13PM EDT


 

Airport Tracker/Info


-or-


 

Live Flight TrackerFlight Track Log ✈ SKW2980 ✈ 06-May-2013 ✈ KPHX - KNYL

Flight Track Log - Related Links

Times and Time Zones

All times are in EDT time to prevent confusion due to time zone crossing. See the SKW2980 flight status page for this flight to view local times or setup timezone preferences in your user account.

Time Position Orientation Groundspeed Altitude Reporting Facility
EDT Latitude Longitude Course Direction KTS MPH feet Rate Location/Type
01:03AM 33.4333 -112.0167 270° West 159 183 1,700  Level Phoenix TRACON
01:04AM 33.4333 -112.0500 270° West 158 182 2,400 1,800 Climbing Phoenix TRACON
01:04AM 33.4183 -112.0672 224° Southwest 175 201 3,300 2,040 Climbing Albuquerque Center
01:05AM 33.3978 -112.1383 251° West 218 251 5,500 2,340 Climbing Albuquerque Center
01:06AM 33.3603 -112.2128 239° Southwest 262 302 8,100 2,520 Climbing Albuquerque Center
01:07AM 33.3039 -112.2747 223° Southwest 272 313 10,600 2,280 Climbing Albuquerque Center
01:08AM 33.2450 -112.3428 224° Southwest 288 331 12,700 2,040 Climbing Albuquerque Center
01:09AM 33.1808 -112.4150 223° Southwest 311 358 14,800 1,620 Climbing Albuquerque Center
01:10AM 33.1217 -112.4839 224° Southwest 320 368 16,100 540 Climbing Albuquerque Center
01:11AM 33.0517 -112.5647 224° Southwest 343 395 16,000 -60 Descending Albuquerque Center
01:12AM 32.9689 -112.6594 224° Southwest 346 398 16,000  Level Albuquerque Center
01:13AM 32.9417 -112.7642 253° West 348 400 16,000  Level Albuquerque Center
01:14AM 32.9289 -112.8769 262° West 347 399 16,000  Level Albuquerque Center
01:15AM 32.9147 -112.9900 262° West 348 400 16,000  Level Albuquerque Center
01:16AM 32.8989 -113.1036 261° West 350 403 16,000  Level Albuquerque Center
01:17AM 32.8836 -113.2172 261° West 350 403 16,000  Level Albuquerque Center
01:18AM 32.8686 -113.3303 261° West 350 403 16,000  Level Albuquerque Center
01:19AM 32.8522 -113.4433 260° West 350 403 16,000  Level Albuquerque Center
01:20AM 32.8364 -113.5586 261° West 353 406 16,000  Level Albuquerque Center
01:21AM 32.8197 -113.6711 260° West 349 402 16,000 -240 Level Albuquerque Center
01:22AM 32.8039 -113.7825 260° West 346 398 15,600 -1,080 Descending Albuquerque Center
01:23AM 32.7892 -113.8819 260° West 317 365 13,900 -1,800 Descending Albuquerque Center
01:24AM 32.7764 -113.9739 261° West 291 335 12,000 -1,920 Descending Albuquerque Center
01:26AM 32.7761 -114.0642 270° West 277 319 10,100 -2,040 Descending Albuquerque Center
01:26AM 32.7744 -114.1506 269° West 268 308 8,300 -1,920 Descending Los Angeles Center
01:27AM 32.7733 -114.1750 267° West 267 307 7,700 -2,100 Descending Los Angeles Center
01:27AM 32.7731 -114.2422 270° West 261 300 6,200 -2,220 Descending Los Angeles Center
01:28AM 32.7744 -114.2767 273° West 259 298 5,500 -1,200 Descending Los Angeles Center
01:28AM 32.7717 -114.3239 266° West 256 295 5,000 -540 Descending Los Angeles Center
01:29AM 32.7728 -114.3561 272° West 244 281 5,000 -420 Level Los Angeles Center
01:29AM 32.7714 -114.4000 268° West 216 249 4,600 -840 Descending Los Angeles Center
01:30AM 32.7714 -114.4244 270° West 215 247 4,200 -600 Descending Los Angeles Center
01:30AM 32.7714 -114.4658 270° West 209 241 4,000 -420 Descending Los Angeles Center
01:31AM 32.7653 -114.4906 254° West 204 235 3,800 -720 Descending Los Angeles Center
01:31AM 32.7381 -114.5153 217° Southwest 202 232 3,300 -840 Descending Los Angeles Center
01:32AM 32.7192 -114.5336 219° Southwest 208 239 3,000 -300 Descending Los Angeles Center
01:32AM 32.6917 -114.5633 222° Southwest 205 236 3,000 -120 Level Los Angeles Center
01:33AM 32.6758 -114.5778 218° Southwest 205 236 2,900 -720 Descending Los Angeles Center
01:33AM 32.6444 -114.5964 207° Southwest 208 239 2,300 -720 Descending Los Angeles Center
01:34AM 32.6275 -114.5811 143° Southeast 214 246 2,200 -240 Descending Los Angeles Center